Time;durP1;ratioP1;P1;durP2;ratioP2;P2;SDS_P1;SDS_P2;PMS_P1;PMS_P2;Temp;Humidity;BMP_temperature;BMP_pressure;BME280_temperature;BME280_humidity;BME280_pressure;Samples;Min_cycle;Max_cycle;Signal;HPM_P1;HPM_P2
2023/08/03 00:00:38;;;;;;;8.68;1.80;;;17.10;99.90;;;;;;4975238;28;20042;-88
2023/08/03 00:03:05;;;;;;;9.55;1.80;;;17.10;99.90;;;;;;4958853;28;20106;-88
2023/08/03 00:05:31;;;;;;;5.82;1.33;;;17.10;99.90;;;;;;4975054;28;20414;-88
2023/08/03 00:07:57;;;;;;;3.58;1.00;;;17.20;99.90;;;;;;4974994;28;20498;-88
2023/08/03 00:10:22;;;;;;;9.45;1.83;;;17.10;99.90;;;;;;4975250;28;20039;-88
2023/08/03 00:12:49;;;;;;;8.45;1.98;;;17.00;99.90;;;;;;4975293;28;20574;-88
2023/08/03 00:15:16;;;;;;;5.57;1.30;;;17.10;99.90;;;;;;4974537;28;20057;-88
2023/08/03 00:17:42;;;;;;;7.43;1.67;;;17.10;99.90;;;;;;4958464;28;20093;-88
2023/08/03 00:20:08;;;;;;;7.95;1.88;;;17.10;99.90;;;;;;4977675;28;20046;-88
2023/08/03 00:22:34;;;;;;;7.63;1.70;;;17.00;99.90;;;;;;4977674;28;20076;-88
2023/08/03 00:25:01;;;;;;;6.78;1.40;;;17.00;99.90;;;;;;4993934;28;20056;-88
2023/08/03 00:27:27;;;;;;;6.13;1.70;;;16.90;99.90;;;;;;4994329;28;20057;-88
2023/08/03 00:29:52;;;;;;;7.65;1.52;;;16.90;99.90;;;;;;4978016;28;20065;-88
2023/08/03 00:32:18;;;;;;;7.07;1.85;;;16.90;99.90;;;;;;4995520;28;20038;-83
2023/08/03 00:34:44;;;;;;;7.53;2.00;;;16.90;99.90;;;;;;4998660;28;20045;-88
2023/08/03 00:37:13;;;;;;;8.05;2.03;;;16.90;99.90;;;;;;4977582;28;20517;-87
2023/08/03 00:39:39;;;;;;;5.35;1.20;;;16.90;99.90;;;;;;4978455;28;20151;-88
2023/08/03 00:42:05;;;;;;;5.47;1.25;;;16.90;99.90;;;;;;4978504;28;20496;-87
2023/08/03 00:44:31;;;;;;;7.80;2.00;;;16.80;99.90;;;;;;4994531;28;20415;-88
2023/08/03 00:46:57;;;;;;;5.63;1.45;;;16.80;99.90;;;;;;4997141;28;20076;-88
2023/08/03 00:49:29;;;;;;;5.13;1.08;;;16.80;99.90;;;;;;4977911;28;20069;-88
2023/08/03 00:51:58;;;;;;;9.43;2.17;;;16.70;99.90;;;;;;4994143;28;20042;-87
2023/08/03 00:54:24;;;;;;;4.32;1.27;;;16.80;99.90;;;;;;4994263;28;20033;-88
2023/08/03 00:56:50;;;;;;;8.15;1.52;;;16.70;99.90;;;;;;4993216;28;20056;-88
2023/08/03 00:59:16;;;;;;;5.47;1.40;;;16.70;99.90;;;;;;4993656;28;20152;-88
2023/08/03 01:01:42;;;;;;;5.32;1.35;;;16.70;99.90;;;;;;4977028;28;20040;-88
2023/08/03 01:04:07;;;;;;;7.55;2.00;;;16.70;99.90;;;;;;4977142;28;20419;-87
2023/08/03 01:06:33;;;;;;;7.50;1.95;;;16.70;99.90;;;;;;4992868;28;20414;-87
2023/08/03 01:09:00;;;;;;;3.63;1.17;;;16.70;99.90;;;;;;4977797;28;20042;-87
2023/08/03 01:11:29;;;;;;;8.77;1.95;;;16.70;99.90;;;;;;4993704;28;20042;-88
2023/08/03 01:13:56;;;;;;;7.57;1.67;;;16.60;99.90;;;;;;4994041;28;20049;-87
2023/08/03 01:16:23;;;;;;;3.72;1.08;;;16.70;99.90;;;;;;4977200;28;20042;-88
2023/08/03 01:18:49;;;;;;;6.82;1.67;;;16.70;99.90;;;;;;4977170;28;20037;-87
2023/08/03 01:21:17;;;;;;;8.75;1.92;;;16.60;99.90;;;;;;4993366;28;20103;-87
2023/08/03 01:23:42;;;;;;;9.88;2.28;;;16.70;99.90;;;;;;4992921;28;20137;-88
2023/08/03 01:26:08;;;;;;;4.57;1.20;;;16.70;99.90;;;;;;4992954;28;20120;-87
2023/08/03 01:28:33;;;;;;;9.63;2.15;;;16.60;99.90;;;;;;4993499;28;20033;-87
2023/08/03 01:30:59;;;;;;;8.05;1.90;;;16.70;99.90;;;;;;4993495;28;20546;-87
2023/08/03 01:33:25;;;;;;;5.72;1.80;;;16.70;99.90;;;;;;4993695;28;20038;-87
2023/08/03 01:35:51;;;;;;;7.00;1.80;;;16.70;99.90;;;;;;4993635;28;20040;-88
2023/08/03 01:38:17;;;;;;;10.13;2.30;;;16.70;99.90;;;;;;4993349;28;20096;-87
2023/08/03 01:40:43;;;;;;;3.10;1.20;;;16.70;99.90;;;;;;4993296;28;20594;-88
2023/08/03 01:43:09;;;;;;;6.70;1.92;;;16.60;99.90;;;;;;4993006;28;20131;-88
2023/08/03 01:45:35;;;;;;;6.18;1.65;;;16.60;99.90;;;;;;4993011;28;20041;-88
2023/08/03 01:48:00;;;;;;;2.97;1.15;;;16.70;99.90;;;;;;4992458;28;20048;-87
2023/08/03 01:50:26;;;;;;;6.53;2.17;;;16.60;99.90;;;;;;4993048;28;20407;-88
2023/08/03 01:52:52;;;;;;;5.50;1.70;;;16.60;99.90;;;;;;4993248;28;20049;-87
2023/08/03 01:55:17;;;;;;;6.70;1.52;;;16.60;99.90;;;;;;4992996;28;20046;-87
2023/08/03 01:57:44;;;;;;;8.75;1.33;;;16.60;99.90;;;;;;4993057;28;20038;-87
2023/08/03 02:00:10;;;;;;;5.15;1.70;;;16.60;99.90;;;;;;4993369;28;20038;-87
2023/08/03 02:02:36;;;;;;;5.22;1.50;;;16.60;99.90;;;;;;4996554;28;20042;-88
2023/08/03 02:05:02;;;;;;;4.70;1.65;;;16.60;99.90;;;;;;4996654;28;20491;-88
2023/08/03 02:07:53;;;;;;;5.15;1.90;;;16.60;99.90;;;;;;4996092;28;20547;-87
2023/08/03 02:10:20;;;;;;;4.65;1.20;;;16.60;99.90;;;;;;4996957;28;20542;-88
2023/08/03 02:12:46;;;;;;;3.92;1.15;;;16.60;99.90;;;;;;4980659;28;20048;-87
2023/08/03 02:15:13;;;;;;;7.10;1.90;;;16.50;99.90;;;;;;4997332;28;20045;-88
2023/08/03 02:17:39;;;;;;;7.18;2.00;;;16.60;99.90;;;;;;4996522;28;20104;-87
2023/08/03 02:20:06;;;;;;;7.00;2.15;;;16.60;99.90;;;;;;4996514;28;20045;-88
2023/08/03 02:22:31;;;;;;;1.60;0.95;;;16.60;99.90;;;;;;4980175;28;20045;-88
2023/08/03 02:24:57;;;;;;;5.55;2.20;;;16.60;99.90;;;;;;4996064;28;20030;-87
2023/08/03 02:27:22;;;;;;;4.80;1.65;;;16.60;99.90;;;;;;4979220;28;20038;-87
2023/08/03 02:29:48;;;;;;;5.95;2.17;;;16.60;99.90;;;;;;4996381;28;20073;-88
2023/08/03 02:32:13;;;;;;;5.80;1.85;;;16.60;99.90;;;;;;4996109;28;20396;-88
2023/08/03 02:34:39;;;;;;;5.30;2.03;;;16.60;99.90;;;;;;4996236;28;20056;-88
2023/08/03 02:37:05;;;;;;;9.05;3.47;;;16.50;99.90;;;;;;4979836;28;20547;-88
2023/08/03 02:39:31;;;;;;;6.20;2.05;;;16.60;99.90;;;;;;4980275;28;20149;-89
2023/08/03 02:41:56;;;;;;;8.70;3.78;;;16.60;99.90;;;;;;4979841;28;20532;-88
2023/08/03 02:44:22;;;;;;;5.13;1.85;;;16.60;99.90;;;;;;4979912;28;20045;-88
2023/08/03 02:46:48;;;;;;;6.75;2.85;;;16.60;99.90;;;;;;4995605;28;20415;-88
2023/08/03 02:49:13;;;;;;;9.13;4.75;;;16.50;99.90;;;;;;4979889;28;20406;-88
2023/08/03 02:51:41;;;;;;;9.90;4.43;;;16.60;99.90;;;;;;4995687;28;20038;-88
2023/08/03 02:54:07;;;;;;;9.00;4.63;;;16.60;99.90;;;;;;4996359;28;20049;-88
2023/08/03 02:56:32;;;;;;;8.40;4.38;;;16.70;99.90;;;;;;4995665;28;20421;-89
2023/08/03 02:58:58;;;;;;;8.27;4.60;;;16.70;99.90;;;;;;4996347;28;20037;-87
2023/08/03 03:01:24;;;;;;;8.60;3.35;;;16.70;99.90;;;;;;4996387;28;20042;-87
2023/08/03 03:03:49;;;;;;;6.40;2.53;;;16.60;99.90;;;;;;4994961;28;20577;-87
2023/08/03 03:06:15;;;;;;;8.63;4.28;;;16.70;99.90;;;;;;4978594;28;20084;-87
2023/08/03 03:08:41;;;;;;;11.57;5.45;;;16.60;99.90;;;;;;4995344;28;20527;-87
2023/08/03 03:11:06;;;;;;;6.25;2.75;;;16.70;99.90;;;;;;4996142;28;20049;-87
2023/08/03 03:13:32;;;;;;;11.13;5.30;;;16.70;99.90;;;;;;4978362;28;20557;-87
2023/08/03 03:15:57;;;;;;;11.10;5.50;;;16.70;99.90;;;;;;4995944;28;20073;-88
2023/08/03 03:18:23;;;;;;;7.07;3.05;;;16.70;99.90;;;;;;4995374;28;20030;-88
2023/08/03 03:20:48;;;;;;;12.20;5.10;;;16.70;99.90;;;;;;4995766;28;20091;-87
2023/08/03 03:23:14;;;;;;;13.90;6.30;;;16.70;99.90;;;;;;4995418;28;20577;-87
2023/08/03 03:25:39;;;;;;;7.70;2.78;;;16.70;99.90;;;;;;4994761;28;20069;-87
2023/08/03 03:28:05;;;;;;;10.23;5.07;;;16.70;99.90;;;;;;4978607;28;20050;-87
2023/08/03 03:30:31;;;;;;;10.93;5.68;;;16.70;99.90;;;;;;4979593;28;20041;-89
2023/08/03 03:32:57;;;;;;;12.00;3.67;;;16.70;99.90;;;;;;4978897;28;20041;-89
2023/08/03 03:35:23;;;;;;;13.30;6.20;;;16.70;99.90;;;;;;4995422;28;20056;-87
2023/08/03 03:37:48;;;;;;;11.85;5.57;;;16.70;99.90;;;;;;4995241;28;20049;-88
2023/08/03 03:40:14;;;;;;;10.77;3.35;;;16.80;99.90;;;;;;4995292;28;20406;-88
2023/08/03 03:42:40;;;;;;;13.45;5.75;;;16.80;99.90;;;;;;4995235;28;20125;-88
2023/08/03 03:45:06;;;;;;;14.90;5.75;;;16.80;99.90;;;;;;4978791;28;20038;-88
2023/08/03 03:47:32;;;;;;;7.10;2.25;;;16.80;99.90;;;;;;4978183;28;20049;-87
2023/08/03 03:49:58;;;;;;;12.88;5.03;;;16.80;99.90;;;;;;4995261;28;20038;-88
2023/08/03 03:52:23;;;;;;;13.35;4.72;;;16.80;99.90;;;;;;4978415;28;20660;-88
2023/08/03 03:54:49;;;;;;;11.82;4.63;;;16.90;99.90;;;;;;4979245;28;20042;-88
2023/08/03 03:57:15;;;;;;;12.63;4.50;;;16.90;99.90;;;;;;4994705;28;20499;-88
2023/08/03 03:59:40;;;;;;;6.45;2.15;;;16.90;99.90;;;;;;4978608;28;20054;-87
2023/08/03 04:02:06;;;;;;;14.50;4.38;;;16.90;99.90;;;;;;4994642;28;20087;-88
2023/08/03 04:04:32;;;;;;;12.98;4.05;;;16.80;99.90;;;;;;4977892;28;20076;-87
2023/08/03 04:06:57;;;;;;;8.52;2.67;;;16.80;99.90;;;;;;4993941;28;20467;-87
2023/08/03 04:09:23;;;;;;;11.90;4.35;;;16.80;99.90;;;;;;4978275;28;20040;-87
2023/08/03 04:11:48;;;;;;;11.30;2.65;;;16.80;99.90;;;;;;4978585;28;20588;-88
2023/08/03 04:14:14;;;;;;;7.57;1.98;;;16.70;99.90;;;;;;4994626;28;20061;-88
2023/08/03 04:16:40;;;;;;;12.75;3.88;;;16.70;99.90;;;;;;4994049;28;20037;-88
2023/08/03 04:19:05;;;;;;;12.48;3.90;;;16.70;99.90;;;;;;4977932;28;20041;-88
2023/08/03 04:21:31;;;;;;;12.60;4.35;;;16.70;99.90;;;;;;4994122;28;20499;-88
2023/08/03 04:23:56;;;;;;;14.43;4.43;;;16.80;99.90;;;;;;4978070;28;20072;-88
2023/08/03 04:26:22;;;;;;;10.10;2.20;;;16.80;99.90;;;;;;4993649;28;20034;-88
2023/08/03 04:28:47;;;;;;;10.20;2.65;;;16.80;99.90;;;;;;4994212;28;20038;-88
2023/08/03 04:31:13;;;;;;;15.48;6.03;;;16.70;99.90;;;;;;4978606;28;20394;-87
2023/08/03 04:33:39;;;;;;;11.30;3.63;;;16.80;99.90;;;;;;4977769;28;20076;-87
2023/08/03 04:36:05;;;;;;;14.13;5.32;;;16.80;99.90;;;;;;4994495;28;20065;-88
2023/08/03 04:38:30;;;;;;;13.65;2.88;;;16.80;99.90;;;;;;4994154;28;20073;-87
2023/08/03 04:40:56;;;;;;;11.38;4.80;;;16.80;99.90;;;;;;4978001;28;20109;-87
2023/08/03 04:43:21;;;;;;;13.75;5.13;;;16.80;99.90;;;;;;4977766;28;20137;-88
2023/08/03 04:45:47;;;;;;;16.33;6.15;;;16.80;99.90;;;;;;4993745;28;20042;-88
2023/08/03 04:48:13;;;;;;;10.32;3.72;;;16.80;99.90;;;;;;4993550;28;20046;-88
2023/08/03 04:50:38;;;;;;;10.27;3.55;;;16.70;99.90;;;;;;4993914;28;20059;-88
2023/08/03 04:53:04;;;;;;;8.75;3.38;;;16.70;99.90;;;;;;4993308;28;20046;-87
2023/08/03 04:55:29;;;;;;;14.23;6.20;;;16.70;99.90;;;;;;4978253;28;20442;-87
2023/08/03 04:57:55;;;;;;;14.05;6.47;;;16.80;99.90;;;;;;4978087;28;20085;-87
2023/08/03 05:00:20;;;;;;;14.73;6.80;;;16.80;99.90;;;;;;4994168;28;20041;-87
2023/08/03 05:02:46;;;;;;;14.77;5.78;;;16.90;99.90;;;;;;4993777;28;20046;-87
2023/08/03 05:05:12;;;;;;;9.68;3.42;;;16.90;99.90;;;;;;4977779;28;20034;-87
2023/08/03 05:07:37;;;;;;;14.10;6.13;;;16.90;99.90;;;;;;4977641;28;20495;-87
2023/08/03 05:10:03;;;;;;;13.77;6.63;;;16.90;99.90;;;;;;4978213;28;20046;-87
2023/08/03 05:12:28;;;;;;;13.60;6.47;;;16.90;99.90;;;;;;4994014;28;20090;-87
2023/08/03 05:14:54;;;;;;;13.93;7.03;;;17.00;99.90;;;;;;4994123;28;20041;-87
2023/08/03 05:17:20;;;;;;;10.80;4.28;;;17.00;99.90;;;;;;4993756;28;20042;-87
2023/08/03 05:19:45;;;;;;;15.07;7.28;;;17.00;99.90;;;;;;4993126;28;20044;-87
2023/08/03 05:22:11;;;;;;;10.13;3.92;;;17.00;99.90;;;;;;4993456;28;20057;-86
2023/08/03 05:24:36;;;;;;;12.85;4.55;;;17.00;99.90;;;;;;4977327;28;20052;-87
2023/08/03 05:27:02;;;;;;;14.45;6.97;;;17.00;99.90;;;;;;4992988;28;20458;-87
2023/08/03 05:29:28;;;;;;;14.20;7.05;;;17.00;99.90;;;;;;4994080;28;20129;-87
2023/08/03 05:31:53;;;;;;;13.73;6.95;;;17.10;99.90;;;;;;4993671;28;20507;-86
2023/08/03 05:34:19;;;;;;;15.68;7.13;;;17.10;99.90;;;;;;4977791;28;20091;-86
2023/08/03 05:36:44;;;;;;;12.15;4.38;;;17.10;99.90;;;;;;4979977;28;20518;-87
2023/08/03 05:39:10;;;;;;;10.57;4.50;;;17.20;99.90;;;;;;4997563;28;20423;-86
2023/08/03 05:41:36;;;;;;;15.45;7.45;;;17.10;99.90;;;;;;4980803;28;20041;-86
2023/08/03 05:44:02;;;;;;;15.00;7.13;;;17.20;99.90;;;;;;4980622;28;20176;-85
2023/08/03 05:46:32;;;;;;;15.00;7.55;;;17.20;99.90;;;;;;4996131;28;20034;-85
2023/08/03 05:48:58;;;;;;;15.80;7.75;;;17.20;99.90;;;;;;4961690;28;20096;-87
2023/08/03 05:51:27;;;;;;;15.77;7.25;;;17.30;99.90;;;;;;4978027;28;20125;-86
2023/08/03 05:53:54;;;;;;;13.63;7.80;;;17.30;99.90;;;;;;4961464;28;20122;-87
2023/08/03 05:56:21;;;;;;;11.10;4.85;;;17.30;99.90;;;;;;4977814;28;20049;-87
2023/08/03 05:58:50;;;;;;;13.15;7.05;;;17.30;99.90;;;;;;4978281;28;20038;-86
2023/08/03 06:01:21;;;;;;;11.50;5.68;;;17.30;99.90;;;;;;4961484;28;20049;-87
2023/08/03 06:03:47;;;;;;;17.65;7.78;;;17.30;99.90;;;;;;4961620;28;20038;-86
2023/08/03 06:06:17;;;;;;;15.30;8.75;;;17.40;99.90;;;;;;4960883;28;20427;-86
2023/08/03 06:08:51;;;;;;;16.20;8.00;;;17.40;99.90;;;;;;4961526;28;20085;-87
2023/08/03 06:11:20;;;;;;;13.95;5.22;;;17.50;99.90;;;;;;4987718;28;20483;-87
2023/08/03 06:13:49;;;;;;;17.00;8.35;;;17.50;99.90;;;;;;4963741;28;20519;-87
2023/08/03 06:16:15;;;;;;;17.98;8.30;;;17.50;99.90;;;;;;4961811;28;20081;-87
2023/08/03 06:18:54;;;;;;;14.25;8.05;;;17.50;99.90;;;;;;4961616;28;20112;-87
2023/08/03 06:21:23;;;;;;;14.98;8.13;;;17.60;99.90;;;;;;4961878;28;20495;-88
2023/08/03 06:23:51;;;;;;;15.60;8.40;;;17.60;99.90;;;;;;4975330;28;20042;-87
2023/08/03 06:26:17;;;;;;;14.27;6.45;;;17.70;99.90;;;;;;4965365;28;20030;-87
2023/08/03 06:28:49;;;;;;;12.43;5.63;;;17.70;99.90;;;;;;4977191;28;20042;-87
2023/08/03 06:31:33;;;;;;;16.50;8.38;;;17.60;99.90;;;;;;4977324;28;20125;-86
2023/08/03 06:33:59;;;;;;;15.13;8.35;;;17.70;99.90;;;;;;4960349;28;20046;-87
2023/08/03 06:36:26;;;;;;;13.63;8.73;;;17.70;99.90;;;;;;4977110;28;20397;-87
2023/08/03 06:38:51;;;;;;;15.35;8.00;;;17.70;99.90;;;;;;4977483;28;20414;-87
2023/08/03 06:41:17;;;;;;;13.88;8.15;;;17.70;99.90;;;;;;4961390;28;20563;-87
2023/08/03 06:43:44;;;;;;;15.85;8.15;;;17.80;99.90;;;;;;4978070;28;20048;-87
2023/08/03 06:46:10;;;;;;;13.75;7.93;;;17.80;99.90;;;;;;4960808;28;20034;-87
2023/08/03 06:48:36;;;;;;;15.80;8.52;;;17.80;99.90;;;;;;4960578;28;20188;-87
2023/08/03 06:51:02;;;;;;;15.90;8.63;;;17.80;99.90;;;;;;4976971;28;20072;-88
2023/08/03 06:53:28;;;;;;;15.25;8.25;;;17.80;99.90;;;;;;4960397;28;20038;-87
2023/08/03 06:55:54;;;;;;;14.80;8.07;;;17.80;99.90;;;;;;4975881;28;20121;-87
2023/08/03 06:58:19;;;;;;;11.50;4.68;;;17.80;99.90;;;;;;4961184;28;20125;-87
2023/08/03 07:00:46;;;;;;;14.07;7.80;;;17.80;99.90;;;;;;4960756;28;20038;-88
2023/08/03 07:03:13;;;;;;;15.77;8.00;;;17.80;99.90;;;;;;4976923;28;20046;-87
2023/08/03 07:05:42;;;;;;;14.32;7.55;;;18.00;99.90;;;;;;4976557;28;20491;-87
2023/08/03 07:08:08;;;;;;;13.40;6.60;;;18.00;99.90;;;;;;4976227;28;20042;-87
2023/08/03 07:10:35;;;;;;;12.48;4.95;;;18.10;99.90;;;;;;4978886;28;20088;-87
2023/08/03 07:13:01;;;;;;;13.65;6.95;;;18.20;99.90;;;;;;4972828;28;20057;-88
2023/08/03 07:15:27;;;;;;;12.20;6.22;;;18.30;99.90;;;;;;4979988;28;20034;-87
2023/08/03 07:17:52;;;;;;;14.43;6.53;;;18.40;99.90;;;;;;4995720;28;20102;-87
2023/08/03 07:20:18;;;;;;;13.07;6.60;;;18.50;99.90;;;;;;4995526;28;20046;-88
2023/08/03 07:22:48;;;;;;;10.00;3.55;;;18.60;99.90;;;;;;4994875;28;20037;-87
2023/08/03 07:25:14;;;;;;;11.73;6.30;;;18.60;99.90;;;;;;4978311;28;20557;-88
2023/08/03 07:27:41;;;;;;;12.13;5.68;;;18.60;99.90;;;;;;4994019;28;20042;-87
2023/08/03 07:30:07;;;;;;;14.85;6.20;;;18.70;99.90;;;;;;4978909;28;20034;-88
2023/08/03 07:32:34;;;;;;;12.90;5.82;;;18.80;99.90;;;;;;4995391;28;20049;-88
2023/08/03 07:35:00;;;;;;;10.93;5.00;;;18.80;99.90;;;;;;4995653;28;20033;-88
2023/08/03 07:37:26;;;;;;;14.70;5.68;;;18.90;99.90;;;;;;4995304;28;20045;-88
2023/08/03 07:39:51;;;;;;;12.40;5.88;;;18.90;99.90;;;;;;4985933;28;20034;-87
2023/08/03 07:42:19;;;;;;;10.52;5.18;;;19.00;99.90;;;;;;4968477;28;20519;-86
2023/08/03 07:44:45;;;;;;;14.23;4.57;;;19.10;99.90;;;;;;5011740;28;20459;-87
2023/08/03 07:47:11;;;;;;;14.70;5.40;;;19.10;99.90;;;;;;4994528;28;20076;-87
2023/08/03 07:49:36;;;;;;;12.85;4.80;;;19.20;99.90;;;;;;4994831;28;20045;-87
2023/08/03 07:52:02;;;;;;;12.73;4.38;;;19.30;99.90;;;;;;4995898;28;20063;-87
2023/08/03 07:54:27;;;;;;;10.75;3.50;;;19.40;99.90;;;;;;4995164;28;20507;-87
2023/08/03 07:56:53;;;;;;;9.23;3.65;;;19.50;99.90;;;;;;4995825;28;20129;-87
2023/08/03 07:59:18;;;;;;;10.50;3.63;;;19.50;99.90;;;;;;4994701;28;20049;-87
2023/08/03 08:01:45;;;;;;;9.50;3.15;;;19.60;99.90;;;;;;4994757;28;20520;-87
2023/08/03 08:04:10;;;;;;;9.40;3.10;;;19.50;99.90;;;;;;4994510;28;20474;-87
2023/08/03 08:06:36;;;;;;;9.57;3.40;;;19.50;99.90;;;;;;4977501;28;20093;-87
2023/08/03 08:09:02;;;;;;;8.88;3.10;;;19.50;99.90;;;;;;4978301;28;20034;-87
2023/08/03 08:11:28;;;;;;;10.90;2.85;;;19.50;99.90;;;;;;4978381;28;20069;-87
2023/08/03 08:13:59;;;;;;;9.75;3.03;;;19.40;99.90;;;;;;4994175;28;20490;-87
2023/08/03 08:16:25;;;;;;;9.77;2.83;;;19.50;99.90;;;;;;4994084;28;20077;-87
2023/08/03 08:18:50;;;;;;;8.70;3.33;;;19.40;99.90;;;;;;4994098;28;20069;-87
2023/08/03 08:21:16;;;;;;;9.38;2.95;;;19.40;99.90;;;;;;4978259;28;20048;-87
2023/08/03 08:23:42;;;;;;;10.27;2.92;;;19.50;99.90;;;;;;4994120;28;20124;-87
2023/08/03 08:26:11;;;;;;;8.30;2.50;;;19.60;99.90;;;;;;4994159;28;20255;-86
2023/08/03 08:28:37;;;;;;;11.98;2.80;;;19.70;99.90;;;;;;4977911;28;20127;-87
2023/08/03 08:31:02;;;;;;;8.85;1.80;;;19.80;99.90;;;;;;4969862;28;20093;-87
2023/08/03 08:33:28;;;;;;;6.10;1.52;;;19.90;99.90;;;;;;4968588;28;20759;-87
2023/08/03 08:35:53;;;;;;;11.10;1.92;;;19.90;99.90;;;;;;4980285;28;20128;-87
2023/08/03 08:38:19;;;;;;;7.25;1.92;;;19.90;99.90;;;;;;4981971;28;20036;-87
2023/08/03 08:40:45;;;;;;;9.38;2.08;;;20.00;99.90;;;;;;4965184;28;20046;-86
2023/08/03 08:43:11;;;;;;;10.10;2.55;;;20.00;99.90;;;;;;4960494;28;20455;-86
2023/08/03 08:45:37;;;;;;;7.60;1.75;;;20.00;99.90;;;;;;4974149;28;20034;-87
2023/08/03 08:48:05;;;;;;;7.18;1.80;;;20.00;99.90;;;;;;4957216;28;20038;-86
2023/08/03 08:50:31;;;;;;;7.97;1.88;;;20.00;99.90;;;;;;4973974;28;20121;-86
2023/08/03 08:52:57;;;;;;;6.78;1.77;;;19.90;99.90;;;;;;4980803;28;20037;-87
2023/08/03 08:55:26;;;;;;;7.85;1.80;;;19.90;99.90;;;;;;4958656;28;20052;-86
2023/08/03 08:57:52;;;;;;;8.93;1.67;;;19.90;99.90;;;;;;4974447;28;20046;-87
2023/08/03 09:00:19;;;;;;;7.22;1.60;;;19.90;99.90;;;;;;4974819;28;20050;-87
2023/08/03 09:02:45;;;;;;;8.25;1.63;;;20.10;99.90;;;;;;4977173;28;20096;-87
2023/08/03 09:05:18;;;;;;;7.45;1.48;;;20.20;99.90;;;;;;4969041;28;20037;-87
2023/08/03 09:07:45;;;;;;;6.10;1.50;;;20.20;99.90;;;;;;4965819;28;20038;-87
2023/08/03 09:10:11;;;;;;;6.25;1.60;;;20.10;99.90;;;;;;4966768;28;20034;-87
2023/08/03 09:12:39;;;;;;;5.57;1.40;;;20.20;99.90;;;;;;4985583;28;20038;-87
2023/08/03 09:15:05;;;;;;;7.55;1.40;;;20.30;99.90;;;;;;4998576;28;20526;-88
2023/08/03 09:17:32;;;;;;;5.80;1.35;;;20.40;99.90;;;;;;4987561;28;20117;-88
2023/08/03 09:19:57;;;;;;;8.98;1.33;;;20.40;99.90;;;;;;4987665;28;20571;-87
2023/08/03 09:22:24;;;;;;;6.60;1.23;;;20.40;99.90;;;;;;4982972;28;20126;-88
2023/08/03 09:25:09;;;;;;;6.13;1.40;;;20.50;99.90;;;;;;4984607;28;20041;-88
2023/08/03 09:27:37;;;;;;;6.80;1.35;;;20.70;99.90;;;;;;4984313;28;20029;-88
2023/08/03 09:30:04;;;;;;;6.07;1.45;;;20.80;99.90;;;;;;4985116;28;20053;-88
2023/08/03 09:32:36;;;;;;;4.88;1.23;;;20.80;99.90;;;;;;4967272;28;20034;-88
2023/08/03 09:35:02;;;;;;;3.75;1.10;;;21.00;99.90;;;;;;4975068;28;20042;-87
2023/08/03 09:37:33;;;;;;;7.68;1.50;;;21.00;99.90;;;;;;4982952;28;20061;-88
2023/08/03 09:39:59;;;;;;;4.28;1.20;;;21.20;99.90;;;;;;4983936;28;20037;-88
2023/08/03 09:42:27;;;;;;;5.05;1.20;;;21.20;99.90;;;;;;4965909;28;20147;-88
2023/08/03 09:44:54;;;;;;;5.32;1.08;;;21.40;99.90;;;;;;4968188;28;20052;-87
2023/08/03 09:47:20;;;;;;;5.43;1.33;;;21.50;99.90;;;;;;4967716;28;20066;-88
2023/08/03 09:49:45;;;;;;;6.63;1.30;;;21.50;99.90;;;;;;4966900;28;20049;-88
2023/08/03 09:52:15;;;;;;;5.82;1.50;;;21.50;99.90;;;;;;4984468;28;20042;-89
2023/08/03 09:55:12;;;;;;;6.88;1.30;;;21.30;99.90;;;;;;4968459;28;20533;-88
2023/08/03 09:57:41;;;;;;;6.35;1.50;;;21.20;99.90;;;;;;4980689;28;20057;-88
2023/08/03 10:00:07;;;;;;;8.38;1.60;;;21.00;99.90;;;;;;4984991;28;20061;-88
2023/08/03 10:02:48;;;;;;;7.25;1.50;;;21.10;99.90;;;;;;4983156;28;20046;-87
2023/08/03 10:05:20;;;;;;;5.82;1.63;;;21.20;99.90;;;;;;4984790;28;20026;-87
2023/08/03 10:07:59;;;;;;;4.72;1.50;;;21.30;99.90;;;;;;4982774;28;20026;-87
2023/08/03 10:10:27;;;;;;;5.32;1.30;;;21.50;99.90;;;;;;4984085;28;20113;-87
2023/08/03 10:12:59;;;;;;;8.02;1.40;;;21.50;99.90;;;;;;4982340;28;20050;-87
2023/08/03 10:15:25;;;;;;;5.50;1.33;;;21.50;99.90;;;;;;4982019;28;20038;-87
2023/08/03 10:17:52;;;;;;;6.85;1.30;;;21.50;99.90;;;;;;4964044;28;20380;-87
2023/08/03 10:20:19;;;;;;;6.72;1.45;;;21.50;99.90;;;;;;4994039;28;20053;-87
2023/08/03 10:23:11;;;;;;;4.88;1.30;;;21.60;99.90;;;;;;4977912;28;20042;-87
2023/08/03 10:25:56;;;;;;;7.32;1.40;;;21.50;99.90;;;;;;4976985;28;20046;-87
2023/08/03 10:28:23;;;;;;;7.53;1.40;;;21.40;99.90;;;;;;4981803;28;20043;-87
2023/08/03 10:31:14;;;;;;;7.55;1.52;;;21.30;99.90;;;;;;4977464;28;20459;-87
2023/08/03 10:33:46;;;;;;;5.68;1.38;;;21.20;99.90;;;;;;4977735;28;20040;-87
2023/08/03 10:36:34;;;;;;;4.75;1.10;;;21.10;99.90;;;;;;4977394;28;20069;-87
2023/08/03 10:39:04;;;;;;;6.03;1.30;;;21.00;99.90;;;;;;4961670;28;20137;-86
2023/08/03 10:41:37;;;;;;;5.35;1.00;;;21.00;99.90;;;;;;4961673;28;20125;-88
2023/08/03 10:44:06;;;;;;;4.70;1.15;;;21.20;99.90;;;;;;4976799;28;20549;-88
2023/08/03 10:46:34;;;;;;;6.80;1.38;;;21.50;99.90;;;;;;4960978;28;20486;-88
2023/08/03 10:48:59;;;;;;;7.53;1.50;;;21.70;99.90;;;;;;4977070;28;20035;-87
2023/08/03 10:51:25;;;;;;;7.43;1.52;;;21.90;99.90;;;;;;4979091;28;20040;-87
2023/08/03 10:53:51;;;;;;;5.45;1.38;;;22.10;99.90;;;;;;4992628;28;20069;-88
2023/08/03 10:56:16;;;;;;;7.38;1.55;;;22.00;99.90;;;;;;4988666;28;20034;-88
2023/08/03 10:58:53;;;;;;;6.40;1.38;;;21.80;99.90;;;;;;4984562;28;20038;-88
2023/08/03 11:01:25;;;;;;;5.22;1.10;;;21.80;99.90;;;;;;4994370;28;20495;-87
2023/08/03 11:03:51;;;;;;;6.68;1.40;;;21.80;99.90;;;;;;4969155;28;20507;-87
2023/08/03 11:06:17;;;;;;;6.45;1.40;;;22.00;99.90;;;;;;4971388;28;20117;-87
2023/08/03 11:08:47;;;;;;;8.15;1.80;;;22.10;99.90;;;;;;4969996;28;20521;-87
2023/08/03 11:11:16;;;;;;;8.02;1.58;;;22.20;99.90;;;;;;4984862;28;20062;-88
2023/08/03 11:13:44;;;;;;;7.50;1.40;;;22.20;99.90;;;;;;4970774;28;20117;-87
2023/08/03 11:16:15;;;;;;;6.85;1.40;;;22.10;99.90;;;;;;4986781;28;20049;-88
2023/08/03 11:18:49;;;;;;;8.30;1.30;;;22.00;99.90;;;;;;4986984;28;20522;-87
2023/08/03 11:21:15;;;;;;;8.32;1.55;;;22.10;99.90;;;;;;4972016;28;20280;-87
2023/08/03 11:23:41;;;;;;;6.88;1.80;;;22.10;99.90;;;;;;4987151;28;20624;-87
2023/08/03 11:26:10;;;;;;;6.13;1.33;;;22.30;99.90;;;;;;4971040;28;20504;-87
2023/08/03 11:28:43;;;;;;;8.63;1.70;;;22.30;99.90;;;;;;5005541;28;20049;-87
2023/08/03 11:31:15;;;;;;;7.57;1.50;;;22.40;99.90;;;;;;4986671;28;20506;-87
2023/08/03 11:33:47;;;;;;;7.13;1.60;;;22.40;99.90;;;;;;5003554;28;20514;-87
2023/08/03 11:36:15;;;;;;;8.82;1.55;;;22.40;99.90;;;;;;4995626;28;20046;-88
2023/08/03 11:38:41;;;;;;;9.98;1.70;;;22.50;99.90;;;;;;4979859;28;20511;-88
2023/08/03 11:41:06;;;;;;;9.70;2.00;;;22.60;99.90;;;;;;4979860;28;20044;-88
2023/08/03 11:43:32;;;;;;;9.05;1.60;;;22.50;99.90;;;;;;4995722;28;20046;-88
2023/08/03 11:45:58;;;;;;;6.25;1.63;;;22.50;99.90;;;;;;4979405;28;20042;-87
2023/08/03 11:48:25;;;;;;;7.07;1.20;;;22.50;99.90;;;;;;4978893;28;20141;-88
2023/08/03 11:50:54;;;;;;;6.47;1.45;;;22.60;99.90;;;;;;4979169;28;20087;-88
2023/08/03 11:53:25;;;;;;;5.35;1.35;;;22.60;99.90;;;;;;4979564;28;20515;-87
2023/08/03 11:55:50;;;;;;;6.97;1.10;;;22.60;99.90;;;;;;4979018;28;20128;-88
2023/08/03 11:58:16;;;;;;;4.38;0.98;;;22.50;99.90;;;;;;4995392;28;20077;-88
2023/08/03 12:00:43;;;;;;;7.35;1.90;;;22.40;99.90;;;;;;4979566;28;20049;-88
2023/08/03 12:03:09;;;;;;;6.60;1.20;;;22.40;99.90;;;;;;4979353;28;20034;-88
2023/08/03 12:05:55;;;;;;;6.60;1.35;;;22.40;99.90;;;;;;4979296;28;20042;-88
2023/08/03 12:08:21;;;;;;;5.45;1.30;;;22.60;99.90;;;;;;4994976;28;20053;-88
2023/08/03 12:11:01;;;;;;;4.32;1.20;;;22.50;99.90;;;;;;4978761;28;20439;-87
2023/08/03 12:13:27;;;;;;;6.30;1.20;;;22.40;99.90;;;;;;4994968;28;20144;-88
2023/08/03 12:15:53;;;;;;;3.55;1.00;;;22.40;99.90;;;;;;4978944;28;20041;-88
2023/08/03 12:18:20;;;;;;;6.53;1.30;;;22.50;99.90;;;;;;4995146;28;20092;-88
2023/08/03 12:20:47;;;;;;;3.50;0.95;;;22.50;99.90;;;;;;4995325;28;20085;-88
2023/08/03 12:23:13;;;;;;;5.03;1.75;;;22.60;99.90;;;;;;4995513;28;20073;-88
2023/08/03 12:25:39;;;;;;;5.47;1.20;;;22.70;99.90;;;;;;4995060;28;20074;-88
2023/08/03 12:28:04;;;;;;;6.35;1.52;;;22.90;99.90;;;;;;4994270;28;20080;-88
2023/08/03 12:30:30;;;;;;;9.30;2.20;;;22.80;99.90;;;;;;4994844;28;20033;-88
2023/08/03 12:32:55;;;;;;;7.85;1.88;;;22.80;99.90;;;;;;4978624;28;20502;-88
2023/08/03 12:35:21;;;;;;;6.32;1.60;;;22.70;99.90;;;;;;4994770;28;20049;-88
2023/08/03 12:37:47;;;;;;;5.95;1.60;;;22.60;99.90;;;;;;4976050;28;20037;-88
2023/08/03 12:40:13;;;;;;;6.68;1.55;;;22.60;99.90;;;;;;4984767;28;20402;-88
2023/08/03 12:42:39;;;;;;;7.70;1.80;;;22.60;99.90;;;;;;4967802;28;20280;-88